sensor_id;sensor_type;location;lat;lon;timestamp;P1;durP1;ratioP1;P2;durP2;ratioP2
33160;SDS011;19522;45.656;11.302;2023-12-14T00:00:43;31.08;;;22.05;;
33160;SDS011;19522;45.656;11.302;2023-12-14T00:03:08;29.30;;;21.80;;
33160;SDS011;19522;45.656;11.302;2023-12-14T00:05:34;26.65;;;22.05;;
33160;SDS011;19522;45.656;11.302;2023-12-14T00:08:00;28.52;;;20.85;;
33160;SDS011;19522;45.656;11.302;2023-12-14T00:10:26;25.02;;;20.25;;
33160;SDS011;19522;45.656;11.302;2023-12-14T00:12:51;25.50;;;20.77;;
33160;SDS011;19522;45.656;11.302;2023-12-14T00:15:18;29.80;;;21.48;;
33160;SDS011;19522;45.656;11.302;2023-12-14T00:17:43;25.65;;;19.95;;
33160;SDS011;19522;45.656;11.302;2023-12-14T00:20:09;29.08;;;20.75;;
33160;SDS011;19522;45.656;11.302;2023-12-14T00:22:35;28.50;;;21.90;;
33160;SDS011;19522;45.656;11.302;2023-12-14T00:25:03;28.35;;;20.98;;
33160;SDS011;19522;45.656;11.302;2023-12-14T00:27:30;29.17;;;21.83;;
33160;SDS011;19522;45.656;11.302;2023-12-14T00:29:55;26.17;;;20.45;;
33160;SDS011;19522;45.656;11.302;2023-12-14T00:32:21;26.98;;;20.95;;
33160;SDS011;19522;45.656;11.302;2023-12-14T00:34:46;26.40;;;19.75;;
33160;SDS011;19522;45.656;11.302;2023-12-14T00:37:12;24.67;;;18.73;;
33160;SDS011;19522;45.656;11.302;2023-12-14T00:39:37;26.83;;;20.65;;
33160;SDS011;19522;45.656;11.302;2023-12-14T00:42:03;26.75;;;21.05;;
33160;SDS011;19522;45.656;11.302;2023-12-14T00:44:29;29.10;;;22.60;;
33160;SDS011;19522;45.656;11.302;2023-12-14T00:46:54;25.98;;;20.35;;
33160;SDS011;19522;45.656;11.302;2023-12-14T00:49:29;27.08;;;21.48;;
33160;SDS011;19522;45.656;11.302;2023-12-14T00:51:58;26.13;;;20.48;;
33160;SDS011;19522;45.656;11.302;2023-12-14T00:54:23;29.80;;;21.02;;
33160;SDS011;19522;45.656;11.302;2023-12-14T00:56:49;27.83;;;21.38;;
33160;SDS011;19522;45.656;11.302;2023-12-14T00:59:14;31.70;;;23.45;;
33160;SDS011;19522;45.656;11.302;2023-12-14T01:01:40;31.58;;;23.40;;
33160;SDS011;19522;45.656;11.302;2023-12-14T01:04:05;28.15;;;21.90;;
33160;SDS011;19522;45.656;11.302;2023-12-14T01:06:31;28.52;;;21.17;;
33160;SDS011;19522;45.656;11.302;2023-12-14T01:08:56;26.38;;;19.90;;
33160;SDS011;19522;45.656;11.302;2023-12-14T01:11:22;21.40;;;17.55;;
33160;SDS011;19522;45.656;11.302;2023-12-14T01:13:47;24.10;;;18.60;;
33160;SDS011;19522;45.656;11.302;2023-12-14T01:16:13;20.83;;;17.45;;
33160;SDS011;19522;45.656;11.302;2023-12-14T01:18:38;21.15;;;16.48;;
33160;SDS011;19522;45.656;11.302;2023-12-14T01:21:04;21.80;;;16.15;;
33160;SDS011;19522;45.656;11.302;2023-12-14T01:23:29;19.95;;;16.23;;
33160;SDS011;19522;45.656;11.302;2023-12-14T01:25:55;22.75;;;15.35;;
33160;SDS011;19522;45.656;11.302;2023-12-14T01:28:20;19.30;;;15.20;;
33160;SDS011;19522;45.656;11.302;2023-12-14T01:30:46;20.90;;;14.40;;
33160;SDS011;19522;45.656;11.302;2023-12-14T01:33:11;16.58;;;13.60;;
33160;SDS011;19522;45.656;11.302;2023-12-14T01:35:37;16.20;;;13.95;;
33160;SDS011;19522;45.656;11.302;2023-12-14T01:38:02;16.25;;;13.57;;
33160;SDS011;19522;45.656;11.302;2023-12-14T01:40:28;15.90;;;12.65;;
33160;SDS011;19522;45.656;11.302;2023-12-14T01:43:05;16.65;;;12.75;;
33160;SDS011;19522;45.656;11.302;2023-12-14T01:45:35;13.90;;;11.48;;
33160;SDS011;19522;45.656;11.302;2023-12-14T01:48:01;14.15;;;9.77;;
33160;SDS011;19522;45.656;11.302;2023-12-14T01:50:27;13.57;;;9.13;;
33160;SDS011;19522;45.656;11.302;2023-12-14T01:52:52;12.05;;;8.85;;
33160;SDS011;19522;45.656;11.302;2023-12-14T01:55:18;10.18;;;8.05;;
33160;SDS011;19522;45.656;11.302;2023-12-14T01:57:43;11.63;;;8.95;;
33160;SDS011;19522;45.656;11.302;2023-12-14T02:00:12;12.68;;;9.35;;
33160;SDS011;19522;45.656;11.302;2023-12-14T02:02:44;11.65;;;9.30;;
33160;SDS011;19522;45.656;11.302;2023-12-14T02:05:10;11.98;;;7.93;;
33160;SDS011;19522;45.656;11.302;2023-12-14T02:07:35;13.88;;;9.73;;
33160;SDS011;19522;45.656;11.302;2023-12-14T02:10:04;14.95;;;9.50;;
33160;SDS011;19522;45.656;11.302;2023-12-14T02:12:30;10.10;;;7.82;;
33160;SDS011;19522;45.656;11.302;2023-12-14T02:14:58;8.95;;;7.65;;
33160;SDS011;19522;45.656;11.302;2023-12-14T02:17:24;14.60;;;7.90;;
33160;SDS011;19522;45.656;11.302;2023-12-14T02:19:50;11.27;;;8.30;;
33160;SDS011;19522;45.656;11.302;2023-12-14T02:22:16;10.18;;;8.43;;
33160;SDS011;19522;45.656;11.302;2023-12-14T02:24:42;11.50;;;9.13;;
33160;SDS011;19522;45.656;11.302;2023-12-14T02:27:08;7.70;;;6.15;;
33160;SDS011;19522;45.656;11.302;2023-12-14T02:29:33;8.02;;;5.72;;
33160;SDS011;19522;45.656;11.302;2023-12-14T02:31:59;5.55;;;4.13;;
33160;SDS011;19522;45.656;11.302;2023-12-14T02:34:24;4.40;;;3.22;;
33160;SDS011;19522;45.656;11.302;2023-12-14T02:36:50;5.03;;;2.85;;
33160;SDS011;19522;45.656;11.302;2023-12-14T02:39:15;4.30;;;3.00;;
33160;SDS011;19522;45.656;11.302;2023-12-14T02:41:41;3.83;;;3.20;;
33160;SDS011;19522;45.656;11.302;2023-12-14T02:44:06;4.40;;;3.25;;
33160;SDS011;19522;45.656;11.302;2023-12-14T02:46:32;4.93;;;3.03;;
33160;SDS011;19522;45.656;11.302;2023-12-14T02:48:57;3.88;;;2.97;;
33160;SDS011;19522;45.656;11.302;2023-12-14T02:51:23;4.55;;;3.35;;
33160;SDS011;19522;45.656;11.302;2023-12-14T02:53:48;4.55;;;3.25;;
33160;SDS011;19522;45.656;11.302;2023-12-14T02:56:17;5.45;;;3.33;;
33160;SDS011;19522;45.656;11.302;2023-12-14T02:58:42;4.32;;;2.92;;
33160;SDS011;19522;45.656;11.302;2023-12-14T03:01:08;3.72;;;2.53;;
33160;SDS011;19522;45.656;11.302;2023-12-14T03:03:33;3.42;;;2.88;;
33160;SDS011;19522;45.656;11.302;2023-12-14T03:05:59;3.45;;;2.90;;
33160;SDS011;19522;45.656;11.302;2023-12-14T03:08:24;4.15;;;3.08;;
33160;SDS011;19522;45.656;11.302;2023-12-14T03:10:50;3.92;;;2.53;;
33160;SDS011;19522;45.656;11.302;2023-12-14T03:13:15;4.00;;;2.78;;
33160;SDS011;19522;45.656;11.302;2023-12-14T03:15:42;3.72;;;2.95;;
33160;SDS011;19522;45.656;11.302;2023-12-14T03:18:08;2.50;;;1.98;;
33160;SDS011;19522;45.656;11.302;2023-12-14T03:20:37;3.30;;;2.33;;
33160;SDS011;19522;45.656;11.302;2023-12-14T03:23:02;3.05;;;2.10;;
33160;SDS011;19522;45.656;11.302;2023-12-14T03:25:28;4.50;;;2.28;;
33160;SDS011;19522;45.656;11.302;2023-12-14T03:27:53;2.92;;;1.98;;
33160;SDS011;19522;45.656;11.302;2023-12-14T03:30:19;4.45;;;2.40;;
33160;SDS011;19522;45.656;11.302;2023-12-14T03:32:44;4.00;;;2.20;;
33160;SDS011;19522;45.656;11.302;2023-12-14T03:35:10;3.55;;;2.00;;
33160;SDS011;19522;45.656;11.302;2023-12-14T03:37:38;2.92;;;2.17;;
33160;SDS011;19522;45.656;11.302;2023-12-14T03:40:04;3.00;;;2.00;;
33160;SDS011;19522;45.656;11.302;2023-12-14T03:42:30;3.17;;;2.30;;
33160;SDS011;19522;45.656;11.302;2023-12-14T03:44:55;3.20;;;1.92;;
33160;SDS011;19522;45.656;11.302;2023-12-14T03:47:21;4.68;;;2.50;;
33160;SDS011;19522;45.656;11.302;2023-12-14T03:49:46;4.57;;;2.63;;
33160;SDS011;19522;45.656;11.302;2023-12-14T03:52:12;4.20;;;2.60;;
33160;SDS011;19522;45.656;11.302;2023-12-14T03:54:38;3.33;;;2.60;;
33160;SDS011;19522;45.656;11.302;2023-12-14T03:57:03;4.90;;;3.30;;
33160;SDS011;19522;45.656;11.302;2023-12-14T03:59:29;6.75;;;3.13;;
33160;SDS011;19522;45.656;11.302;2023-12-14T04:01:54;4.13;;;2.72;;
33160;SDS011;19522;45.656;11.302;2023-12-14T04:04:20;5.43;;;2.92;;
33160;SDS011;19522;45.656;11.302;2023-12-14T04:06:45;3.67;;;2.65;;
33160;SDS011;19522;45.656;11.302;2023-12-14T04:09:11;4.65;;;2.65;;
33160;SDS011;19522;45.656;11.302;2023-12-14T04:11:36;4.65;;;3.00;;
33160;SDS011;19522;45.656;11.302;2023-12-14T04:14:02;5.10;;;3.00;;
33160;SDS011;19522;45.656;11.302;2023-12-14T04:16:27;3.88;;;2.72;;
33160;SDS011;19522;45.656;11.302;2023-12-14T04:18:53;4.63;;;2.75;;
33160;SDS011;19522;45.656;11.302;2023-12-14T04:21:18;4.18;;;2.90;;
33160;SDS011;19522;45.656;11.302;2023-12-14T04:23:44;4.80;;;3.15;;
33160;SDS011;19522;45.656;11.302;2023-12-14T04:26:10;7.07;;;3.38;;
33160;SDS011;19522;45.656;11.302;2023-12-14T04:28:36;6.32;;;3.30;;
33160;SDS011;19522;45.656;11.302;2023-12-14T04:31:01;4.45;;;2.78;;
33160;SDS011;19522;45.656;11.302;2023-12-14T04:33:27;8.45;;;2.83;;
33160;SDS011;19522;45.656;11.302;2023-12-14T04:35:52;3.65;;;2.80;;
33160;SDS011;19522;45.656;11.302;2023-12-14T04:38:18;3.70;;;2.50;;
33160;SDS011;19522;45.656;11.302;2023-12-14T04:40:43;4.22;;;2.65;;
33160;SDS011;19522;45.656;11.302;2023-12-14T04:43:09;4.80;;;2.90;;
33160;SDS011;19522;45.656;11.302;2023-12-14T04:45:34;5.40;;;3.30;;
33160;SDS011;19522;45.656;11.302;2023-12-14T04:48:00;3.47;;;2.50;;
33160;SDS011;19522;45.656;11.302;2023-12-14T04:50:25;5.25;;;3.10;;
33160;SDS011;19522;45.656;11.302;2023-12-14T04:52:51;6.10;;;2.88;;
33160;SDS011;19522;45.656;11.302;2023-12-14T04:55:16;5.55;;;3.00;;
33160;SDS011;19522;45.656;11.302;2023-12-14T04:57:42;5.00;;;2.90;;
33160;SDS011;19522;45.656;11.302;2023-12-14T05:00:08;4.03;;;2.97;;
33160;SDS011;19522;45.656;11.302;2023-12-14T05:02:34;4.20;;;3.15;;
33160;SDS011;19522;45.656;11.302;2023-12-14T05:04:59;4.90;;;3.05;;
33160;SDS011;19522;45.656;11.302;2023-12-14T05:07:25;4.82;;;3.33;;
33160;SDS011;19522;45.656;11.302;2023-12-14T05:09:51;5.68;;;3.25;;
33160;SDS011;19522;45.656;11.302;2023-12-14T05:12:16;4.90;;;3.38;;
33160;SDS011;19522;45.656;11.302;2023-12-14T05:14:42;4.60;;;3.08;;
33160;SDS011;19522;45.656;11.302;2023-12-14T05:17:07;5.38;;;2.97;;
33160;SDS011;19522;45.656;11.302;2023-12-14T05:19:33;3.35;;;2.75;;
33160;SDS011;19522;45.656;11.302;2023-12-14T05:21:59;3.55;;;2.70;;
33160;SDS011;19522;45.656;11.302;2023-12-14T05:24:25;4.75;;;3.00;;
33160;SDS011;19522;45.656;11.302;2023-12-14T05:26:50;4.70;;;3.38;;
33160;SDS011;19522;45.656;11.302;2023-12-14T05:29:16;5.03;;;4.10;;
33160;SDS011;19522;45.656;11.302;2023-12-14T05:31:42;6.20;;;4.57;;
33160;SDS011;19522;45.656;11.302;2023-12-14T05:34:07;6.10;;;4.13;;
33160;SDS011;19522;45.656;11.302;2023-12-14T05:36:33;6.20;;;3.63;;
33160;SDS011;19522;45.656;11.302;2023-12-14T05:38:58;5.35;;;3.13;;
33160;SDS011;19522;45.656;11.302;2023-12-14T05:41:24;4.47;;;3.63;;
33160;SDS011;19522;45.656;11.302;2023-12-14T05:43:49;3.70;;;2.72;;
33160;SDS011;19522;45.656;11.302;2023-12-14T05:46:21;4.82;;;2.90;;
33160;SDS011;19522;45.656;11.302;2023-12-14T05:48:48;3.22;;;2.50;;
33160;SDS011;19522;45.656;11.302;2023-12-14T05:51:25;6.60;;;3.03;;
33160;SDS011;19522;45.656;11.302;2023-12-14T05:53:54;4.72;;;3.60;;
33160;SDS011;19522;45.656;11.302;2023-12-14T05:56:20;5.35;;;4.03;;
33160;SDS011;19522;45.656;11.302;2023-12-14T05:58:45;5.90;;;3.10;;
33160;SDS011;19522;45.656;11.302;2023-12-14T06:01:11;4.60;;;3.67;;
33160;SDS011;19522;45.656;11.302;2023-12-14T06:03:36;5.22;;;4.05;;
33160;SDS011;19522;45.656;11.302;2023-12-14T06:06:02;7.72;;;4.50;;
33160;SDS011;19522;45.656;11.302;2023-12-14T06:08:28;14.40;;;6.88;;
33160;SDS011;19522;45.656;11.302;2023-12-14T06:10:53;6.03;;;5.13;;
33160;SDS011;19522;45.656;11.302;2023-12-14T06:13:18;7.72;;;5.28;;
33160;SDS011;19522;45.656;11.302;2023-12-14T06:15:44;4.47;;;3.45;;
33160;SDS011;19522;45.656;11.302;2023-12-14T06:18:09;3.05;;;2.50;;
33160;SDS011;19522;45.656;11.302;2023-12-14T06:20:35;3.20;;;2.70;;
33160;SDS011;19522;45.656;11.302;2023-12-14T06:23:00;2.65;;;2.28;;
33160;SDS011;19522;45.656;11.302;2023-12-14T06:25:26;5.95;;;5.30;;
33160;SDS011;19522;45.656;11.302;2023-12-14T06:27:51;10.32;;;7.43;;
33160;SDS011;19522;45.656;11.302;2023-12-14T06:30:17;17.52;;;10.27;;
33160;SDS011;19522;45.656;11.302;2023-12-14T06:32:42;17.30;;;10.43;;
33160;SDS011;19522;45.656;11.302;2023-12-14T06:35:08;21.15;;;11.93;;
33160;SDS011;19522;45.656;11.302;2023-12-14T06:37:33;15.05;;;11.30;;
33160;SDS011;19522;45.656;11.302;2023-12-14T06:39:59;14.13;;;10.57;;
33160;SDS011;19522;45.656;11.302;2023-12-14T06:42:26;11.95;;;8.60;;
33160;SDS011;19522;45.656;11.302;2023-12-14T06:44:52;12.75;;;8.80;;
33160;SDS011;19522;45.656;11.302;2023-12-14T06:47:18;10.68;;;7.10;;
33160;SDS011;19522;45.656;11.302;2023-12-14T06:49:44;8.57;;;5.32;;
33160;SDS011;19522;45.656;11.302;2023-12-14T06:52:09;5.32;;;4.22;;
33160;SDS011;19522;45.656;11.302;2023-12-14T06:54:35;5.47;;;4.32;;
33160;SDS011;19522;45.656;11.302;2023-12-14T06:57:00;10.50;;;6.88;;
33160;SDS011;19522;45.656;11.302;2023-12-14T06:59:26;11.40;;;6.95;;
33160;SDS011;19522;45.656;11.302;2023-12-14T07:01:52;11.73;;;9.00;;
33160;SDS011;19522;45.656;11.302;2023-12-14T07:04:17;10.35;;;7.53;;
33160;SDS011;19522;45.656;11.302;2023-12-14T07:06:49;11.20;;;8.23;;
33160;SDS011;19522;45.656;11.302;2023-12-14T07:09:16;8.32;;;6.93;;
33160;SDS011;19522;45.656;11.302;2023-12-14T07:11:41;8.25;;;5.68;;
33160;SDS011;19522;45.656;11.302;2023-12-14T07:14:07;9.80;;;6.88;;
33160;SDS011;19522;45.656;11.302;2023-12-14T07:16:32;8.35;;;5.53;;
33160;SDS011;19522;45.656;11.302;2023-12-14T07:18:58;6.82;;;5.13;;
33160;SDS011;19522;45.656;11.302;2023-12-14T07:21:23;7.80;;;5.50;;
33160;SDS011;19522;45.656;11.302;2023-12-14T07:23:49;7.10;;;5.18;;
33160;SDS011;19522;45.656;11.302;2023-12-14T07:26:14;8.20;;;5.88;;
33160;SDS011;19522;45.656;11.302;2023-12-14T07:28:40;7.30;;;6.10;;
33160;SDS011;19522;45.656;11.302;2023-12-14T07:31:05;6.40;;;5.53;;
33160;SDS011;19522;45.656;11.302;2023-12-14T07:33:31;10.38;;;8.30;;
33160;SDS011;19522;45.656;11.302;2023-12-14T07:35:56;10.60;;;8.82;;
33160;SDS011;19522;45.656;11.302;2023-12-14T07:38:22;8.95;;;8.02;;
33160;SDS011;19522;45.656;11.302;2023-12-14T07:40:47;9.82;;;7.35;;
33160;SDS011;19522;45.656;11.302;2023-12-14T07:43:15;8.00;;;6.22;;
33160;SDS011;19522;45.656;11.302;2023-12-14T07:45:40;8.60;;;6.75;;
33160;SDS011;19522;45.656;11.302;2023-12-14T07:48:06;8.48;;;7.57;;
33160;SDS011;19522;45.656;11.302;2023-12-14T07:50:32;6.55;;;5.43;;
33160;SDS011;19522;45.656;11.302;2023-12-14T07:52:57;5.45;;;4.47;;
33160;SDS011;19522;45.656;11.302;2023-12-14T07:55:23;6.35;;;5.03;;
33160;SDS011;19522;45.656;11.302;2023-12-14T07:57:48;6.93;;;6.22;;
33160;SDS011;19522;45.656;11.302;2023-12-14T08:00:15;7.95;;;5.65;;
33160;SDS011;19522;45.656;11.302;2023-12-14T08:02:40;6.38;;;5.28;;
33160;SDS011;19522;45.656;11.302;2023-12-14T08:05:07;9.68;;;7.05;;
33160;SDS011;19522;45.656;11.302;2023-12-14T08:07:34;13.55;;;10.45;;
33160;SDS011;19522;45.656;11.302;2023-12-14T08:09:59;10.00;;;8.48;;
33160;SDS011;19522;45.656;11.302;2023-12-14T08:12:25;8.02;;;6.68;;
33160;SDS011;19522;45.656;11.302;2023-12-14T08:14:52;8.27;;;5.43;;
33160;SDS011;19522;45.656;11.302;2023-12-14T08:17:17;8.20;;;5.95;;
33160;SDS011;19522;45.656;11.302;2023-12-14T08:19:43;9.32;;;7.03;;
33160;SDS011;19522;45.656;11.302;2023-12-14T08:22:09;10.75;;;8.20;;
33160;SDS011;19522;45.656;11.302;2023-12-14T08:24:37;11.82;;;8.23;;
33160;SDS011;19522;45.656;11.302;2023-12-14T08:27:05;13.50;;;9.98;;
33160;SDS011;19522;45.656;11.302;2023-12-14T08:29:30;12.82;;;10.15;;
33160;SDS011;19522;45.656;11.302;2023-12-14T08:31:56;12.82;;;10.02;;
33160;SDS011;19522;45.656;11.302;2023-12-14T08:34:24;17.30;;;11.57;;
33160;SDS011;19522;45.656;11.302;2023-12-14T08:36:52;24.65;;;16.35;;
33160;SDS011;19522;45.656;11.302;2023-12-14T08:39:18;18.33;;;12.38;;
33160;SDS011;19522;45.656;11.302;2023-12-14T08:41:45;15.98;;;10.70;;
33160;SDS011;19522;45.656;11.302;2023-12-14T08:44:12;15.05;;;10.00;;
33160;SDS011;19522;45.656;11.302;2023-12-14T08:46:38;15.10;;;10.40;;
33160;SDS011;19522;45.656;11.302;2023-12-14T08:49:08;13.90;;;8.88;;
33160;SDS011;19522;45.656;11.302;2023-12-14T08:51:33;12.65;;;8.63;;
33160;SDS011;19522;45.656;11.302;2023-12-14T08:53:59;10.57;;;8.40;;
33160;SDS011;19522;45.656;11.302;2023-12-14T08:56:24;14.52;;;8.10;;
33160;SDS011;19522;45.656;11.302;2023-12-14T08:58:50;9.82;;;7.15;;
33160;SDS011;19522;45.656;11.302;2023-12-14T09:01:19;9.60;;;6.78;;
33160;SDS011;19522;45.656;11.302;2023-12-14T09:03:46;11.35;;;7.68;;
33160;SDS011;19522;45.656;11.302;2023-12-14T09:06:11;9.15;;;6.70;;
33160;SDS011;19522;45.656;11.302;2023-12-14T09:08:37;9.35;;;7.10;;
33160;SDS011;19522;45.656;11.302;2023-12-14T09:11:02;8.90;;;6.90;;
33160;SDS011;19522;45.656;11.302;2023-12-14T09:13:29;16.50;;;11.82;;
33160;SDS011;19522;45.656;11.302;2023-12-14T09:15:54;17.15;;;11.93;;
33160;SDS011;19522;45.656;11.302;2023-12-14T09:18:20;16.48;;;11.27;;
33160;SDS011;19522;45.656;11.302;2023-12-14T09:20:47;11.20;;;8.55;;
33160;SDS011;19522;45.656;11.302;2023-12-14T09:23:15;9.02;;;6.60;;
33160;SDS011;19522;45.656;11.302;2023-12-14T09:25:40;10.40;;;7.55;;
33160;SDS011;19522;45.656;11.302;2023-12-14T09:28:06;8.35;;;6.38;;
33160;SDS011;19522;45.656;11.302;2023-12-14T09:30:32;8.73;;;5.95;;
33160;SDS011;19522;45.656;11.302;2023-12-14T09:32:58;8.40;;;6.22;;
33160;SDS011;19522;45.656;11.302;2023-12-14T09:35:23;9.27;;;6.68;;
33160;SDS011;19522;45.656;11.302;2023-12-14T09:37:48;7.05;;;5.28;;
33160;SDS011;19522;45.656;11.302;2023-12-14T09:40:14;8.60;;;5.63;;
33160;SDS011;19522;45.656;11.302;2023-12-14T09:42:41;10.60;;;7.28;;
33160;SDS011;19522;45.656;11.302;2023-12-14T09:45:07;13.98;;;8.27;;
33160;SDS011;19522;45.656;11.302;2023-12-14T09:47:34;13.32;;;7.75;;
33160;SDS011;19522;45.656;11.302;2023-12-14T09:50:00;9.05;;;5.63;;
33160;SDS011;19522;45.656;11.302;2023-12-14T09:52:26;7.80;;;4.38;;
33160;SDS011;19522;45.656;11.302;2023-12-14T09:54:51;9.48;;;6.15;;
33160;SDS011;19522;45.656;11.302;2023-12-14T09:57:20;9.82;;;5.93;;
33160;SDS011;19522;45.656;11.302;2023-12-14T09:59:52;6.85;;;5.55;;
33160;SDS011;19522;45.656;11.302;2023-12-14T10:02:19;7.70;;;5.15;;
33160;SDS011;19522;45.656;11.302;2023-12-14T10:04:48;8.55;;;4.82;;
33160;SDS011;19522;45.656;11.302;2023-12-14T10:07:14;6.97;;;4.10;;
33160;SDS011;19522;45.656;11.302;2023-12-14T10:09:39;7.60;;;4.50;;
33160;SDS011;19522;45.656;11.302;2023-12-14T10:12:06;8.15;;;4.68;;
33160;SDS011;19522;45.656;11.302;2023-12-14T10:14:33;6.88;;;4.65;;
33160;SDS011;19522;45.656;11.302;2023-12-14T10:16:58;6.65;;;5.07;;
33160;SDS011;19522;45.656;11.302;2023-12-14T10:19:41;10.93;;;7.97;;
33160;SDS011;19522;45.656;11.302;2023-12-14T10:22:08;11.48;;;10.07;;
33160;SDS011;19522;45.656;11.302;2023-12-14T10:24:33;8.18;;;6.13;;
33160;SDS011;19522;45.656;11.302;2023-12-14T10:27:00;6.63;;;4.80;;
33160;SDS011;19522;45.656;11.302;2023-12-14T10:29:36;4.93;;;3.80;;
33160;SDS011;19522;45.656;11.302;2023-12-14T10:32:03;5.78;;;4.75;;
33160;SDS011;19522;45.656;11.302;2023-12-14T10:34:31;7.75;;;6.22;;
33160;SDS011;19522;45.656;11.302;2023-12-14T10:36:58;7.15;;;5.00;;
33160;SDS011;19522;45.656;11.302;2023-12-14T10:39:24;8.88;;;4.55;;
33160;SDS011;19522;45.656;11.302;2023-12-14T10:41:51;5.82;;;4.45;;
33160;SDS011;19522;45.656;11.302;2023-12-14T10:44:20;6.55;;;3.95;;
33160;SDS011;19522;45.656;11.302;2023-12-14T10:46:48;6.55;;;4.43;;
33160;SDS011;19522;45.656;11.302;2023-12-14T10:49:14;6.20;;;4.38;;
33160;SDS011;19522;45.656;11.302;2023-12-14T10:51:40;6.20;;;3.88;;
33160;SDS011;19522;45.656;11.302;2023-12-14T10:54:08;6.22;;;4.68;;
33160;SDS011;19522;45.656;11.302;2023-12-14T10:56:34;5.80;;;4.47;;
33160;SDS011;19522;45.656;11.302;2023-12-14T10:59:00;5.15;;;4.00;;
33160;SDS011;19522;45.656;11.302;2023-12-14T11:01:26;5.28;;;4.07;;
33160;SDS011;19522;45.656;11.302;2023-12-14T11:03:54;5.20;;;3.78;;
33160;SDS011;19522;45.656;11.302;2023-12-14T11:06:26;4.38;;;3.08;;
33160;SDS011;19522;45.656;11.302;2023-12-14T11:08:57;4.72;;;3.45;;
33160;SDS011;19522;45.656;11.302;2023-12-14T11:11:30;5.60;;;4.28;;
33160;SDS011;19522;45.656;11.302;2023-12-14T11:14:05;4.75;;;3.55;;
33160;SDS011;19522;45.656;11.302;2023-12-14T11:16:33;5.82;;;4.50;;
33160;SDS011;19522;45.656;11.302;2023-12-14T11:19:41;6.43;;;4.32;;
33160;SDS011;19522;45.656;11.302;2023-12-14T11:24:20;8.50;;;7.05;;
33160;SDS011;19522;45.656;11.302;2023-12-14T11:26:48;7.70;;;5.43;;
33160;SDS011;19522;45.656;11.302;2023-12-14T11:29:14;5.05;;;3.53;;
33160;SDS011;19522;45.656;11.302;2023-12-14T11:31:40;2.28;;;1.60;;
33160;SDS011;19522;45.656;11.302;2023-12-14T11:34:05;2.78;;;2.00;;
33160;SDS011;19522;45.656;11.302;2023-12-14T11:36:32;2.88;;;1.90;;
33160;SDS011;19522;45.656;11.302;2023-12-14T11:38:58;3.20;;;2.35;;
33160;SDS011;19522;45.656;11.302;2023-12-14T11:41:23;4.20;;;3.60;;
33160;SDS011;19522;45.656;11.302;2023-12-14T11:43:50;6.78;;;4.70;;
33160;SDS011;19522;45.656;11.302;2023-12-14T11:46:16;5.03;;;3.75;;
33160;SDS011;19522;45.656;11.302;2023-12-14T11:48:46;8.00;;;3.60;;
33160;SDS011;19522;45.656;11.302;2023-12-14T11:51:13;5.82;;;3.15;;
33160;SDS011;19522;45.656;11.302;2023-12-14T11:53:43;4.95;;;3.15;;
33160;SDS011;19522;45.656;11.302;2023-12-14T11:56:09;6.50;;;3.90;;
33160;SDS011;19522;45.656;11.302;2023-12-14T11:58:36;5.00;;;3.88;;
33160;SDS011;19522;45.656;11.302;2023-12-14T12:01:15;9.23;;;5.13;;
33160;SDS011;19522;45.656;11.302;2023-12-14T12:03:46;6.10;;;4.03;;
33160;SDS011;19522;45.656;11.302;2023-12-14T12:06:24;5.85;;;4.63;;
33160;SDS011;19522;45.656;11.302;2023-12-14T12:08:52;7.70;;;4.70;;
33160;SDS011;19522;45.656;11.302;2023-12-14T12:11:19;6.15;;;4.88;;
33160;SDS011;19522;45.656;11.302;2023-12-14T12:13:50;8.90;;;6.18;;
33160;SDS011;19522;45.656;11.302;2023-12-14T12:16:16;13.13;;;6.75;;
33160;SDS011;19522;45.656;11.302;2023-12-14T12:18:42;10.27;;;7.55;;
33160;SDS011;19522;45.656;11.302;2023-12-14T12:21:07;10.10;;;7.72;;
33160;SDS011;19522;45.656;11.302;2023-12-14T12:23:34;12.05;;;8.70;;
33160;SDS011;19522;45.656;11.302;2023-12-14T12:26:00;9.55;;;8.10;;
33160;SDS011;19522;45.656;11.302;2023-12-14T12:28:25;8.57;;;6.97;;
33160;SDS011;19522;45.656;11.302;2023-12-14T12:30:52;7.97;;;6.53;;
33160;SDS011;19522;45.656;11.302;2023-12-14T12:33:18;6.75;;;5.53;;
33160;SDS011;19522;45.656;11.302;2023-12-14T12:35:44;8.75;;;6.28;;
33160;SDS011;19522;45.656;11.302;2023-12-14T12:38:09;9.27;;;7.20;;
33160;SDS011;19522;45.656;11.302;2023-12-14T12:40:34;8.68;;;6.80;;
33160;SDS011;19522;45.656;11.302;2023-12-14T12:43:00;8.45;;;7.20;;
33160;SDS011;19522;45.656;11.302;2023-12-14T12:45:26;7.45;;;6.40;;
33160;SDS011;19522;45.656;11.302;2023-12-14T12:47:53;7.72;;;6.07;;
33160;SDS011;19522;45.656;11.302;2023-12-14T12:50:18;8.20;;;6.88;;
33160;SDS011;19522;45.656;11.302;2023-12-14T12:52:45;10.20;;;6.60;;
33160;SDS011;19522;45.656;11.302;2023-12-14T12:55:13;13.35;;;8.35;;
33160;SDS011;19522;45.656;11.302;2023-12-14T12:57:39;15.75;;;10.25;;
33160;SDS011;19522;45.656;11.302;2023-12-14T13:00:06;18.65;;;13.23;;
33160;SDS011;19522;45.656;11.302;2023-12-14T13:02:36;20.80;;;13.82;;
33160;SDS011;19522;45.656;11.302;2023-12-14T13:05:04;21.95;;;15.20;;
33160;SDS011;19522;45.656;11.302;2023-12-14T13:07:34;22.83;;;14.38;;
33160;SDS011;19522;45.656;11.302;2023-12-14T13:09:59;24.38;;;15.18;;
33160;SDS011;19522;45.656;11.302;2023-12-14T13:12:25;21.58;;;13.20;;
33160;SDS011;19522;45.656;11.302;2023-12-14T13:14:51;19.85;;;14.20;;
33160;SDS011;19522;45.656;11.302;2023-12-14T13:17:16;20.38;;;13.45;;
33160;SDS011;19522;45.656;11.302;2023-12-14T13:19:43;22.80;;;13.60;;
33160;SDS011;19522;45.656;11.302;2023-12-14T13:22:09;19.30;;;12.45;;
33160;SDS011;19522;45.656;11.302;2023-12-14T13:24:36;25.60;;;14.48;;
33160;SDS011;19522;45.656;11.302;2023-12-14T13:27:02;20.35;;;13.20;;
33160;SDS011;19522;45.656;11.302;2023-12-14T13:29:28;15.80;;;11.10;;
33160;SDS011;19522;45.656;11.302;2023-12-14T13:31:56;16.63;;;10.80;;
33160;SDS011;19522;45.656;11.302;2023-12-14T13:34:21;17.00;;;11.43;;
33160;SDS011;19522;45.656;11.302;2023-12-14T13:36:47;17.48;;;12.07;;
33160;SDS011;19522;45.656;11.302;2023-12-14T13:39:12;18.35;;;12.52;;
33160;SDS011;19522;45.656;11.302;2023-12-14T13:41:38;19.50;;;12.88;;
33160;SDS011;19522;45.656;11.302;2023-12-14T13:44:03;25.98;;;16.98;;
33160;SDS011;19522;45.656;11.302;2023-12-14T13:46:29;27.33;;;19.13;;
33160;SDS011;19522;45.656;11.302;2023-12-14T13:48:54;25.80;;;17.95;;
33160;SDS011;19522;45.656;11.302;2023-12-14T13:51:20;24.38;;;16.65;;
33160;SDS011;19522;45.656;11.302;2023-12-14T13:53:45;25.27;;;17.88;;
33160;SDS011;19522;45.656;11.302;2023-12-14T13:56:11;24.50;;;17.65;;
33160;SDS011;19522;45.656;11.302;2023-12-14T13:58:36;21.98;;;16.13;;
33160;SDS011;19522;45.656;11.302;2023-12-14T14:01:03;25.98;;;17.00;;
33160;SDS011;19522;45.656;11.302;2023-12-14T14:03:36;27.77;;;18.10;;
33160;SDS011;19522;45.656;11.302;2023-12-14T14:06:03;25.77;;;16.42;;
33160;SDS011;19522;45.656;11.302;2023-12-14T14:08:29;25.45;;;17.45;;
33160;SDS011;19522;45.656;11.302;2023-12-14T14:10:56;23.50;;;16.08;;
33160;SDS011;19522;45.656;11.302;2023-12-14T14:13:22;23.58;;;16.50;;
33160;SDS011;19522;45.656;11.302;2023-12-14T14:15:48;27.55;;;18.65;;
33160;SDS011;19522;45.656;11.302;2023-12-14T14:18:13;27.83;;;19.58;;
33160;SDS011;19522;45.656;11.302;2023-12-14T14:20:39;29.10;;;17.75;;
33160;SDS011;19522;45.656;11.302;2023-12-14T14:23:05;27.23;;;19.08;;